Manzanillo, Cuba
Current Conditions -  °F | °C
As of 11:51 AM on Tuesday 21 Oct 2014 (Local Time) from MUHG Reporting Station
Few Clouds Few Clouds  
Wind Chill: 86°   Ceiling: Unl
Heat Index: 90°   Visibility: 6mi
Dew Point: 70°   Wind: 7mph
Humidity: 58%   Direction: 150°SSE
Pressure: 29.94"   Gusts: NA
Location:  20.35°N, 77.12°W
Report Text: MUHG 211551Z 15006KT 110V190 9000 FEW025 30/21 Q1014
Loading
Personal Weather Stations






























Interactive Weather Map
Tropical Storm Tracking
New forecast layout! Learn more

10-Day Weather Forecast

Advertisements
Track Severe Weather on mobile